Time;durP1;ratioP1;P1;durP2;ratioP2;P2;SDS_P1;SDS_P2;PMS_P1;PMS_P2;Temp;Humidity;BMP_temperature;BMP_pressure;BME280_temperature;BME280_humidity;BME280_pressure;Samples;Min_cycle;Max_cycle;Signal;HPM_P1;HPM_P2
2023/05/25 00:01:43;;;;;;;9.23;6.60;;;;;;;18.02;75.30;94786.00;5073675;28;20446;-81
2023/05/25 00:04:15;;;;;;;7.27;6.20;;;;;;;18.02;75.31;94791.31;5073700;28;20472;-81
2023/05/25 00:06:44;;;;;;;7.23;5.70;;;;;;;17.92;75.40;94788.88;5073621;28;20805;-81
2023/05/25 00:09:11;;;;;;;7.23;5.43;;;;;;;17.92;75.37;94797.69;5073432;28;20479;-82
2023/05/25 00:11:38;;;;;;;7.20;5.67;;;;;;;17.99;75.47;94791.69;5054595;28;20475;-81
2023/05/25 00:14:07;;;;;;;6.50;5.90;;;;;;;18.03;75.59;94795.63;5073721;28;20507;-82
2023/05/25 00:16:36;;;;;;;9.40;6.27;;;;;;;18.11;75.57;94806.19;5073501;28;20490;-82
2023/05/25 00:19:04;;;;;;;7.93;5.30;;;;;;;18.13;75.71;94805.00;5073764;28;20452;-81
2023/05/25 00:21:32;;;;;;;6.60;6.00;;;;;;;18.08;76.38;94812.69;5038627;28;20457;-82
2023/05/25 00:23:59;;;;;;;6.97;6.37;;;;;;;17.97;78.11;94809.63;5073354;28;20455;-81
2023/05/25 00:26:26;;;;;;;8.30;6.47;;;;;;;17.63;80.61;94818.75;5037961;28;20452;-82
2023/05/25 00:28:53;;;;;;;8.90;6.80;;;;;;;17.57;81.23;94820.28;5073140;28;20440;-82
2023/05/25 00:31:21;;;;;;;8.10;6.70;;;;;;;17.59;81.61;94820.09;5073311;28;20464;-81
2023/05/25 00:33:49;;;;;;;8.90;6.70;;;;;;;17.57;81.87;94817.63;5073456;28;20449;-81
2023/05/25 00:36:16;;;;;;;7.80;6.70;;;;;;;17.57;81.74;94822.91;5072870;28;20634;-81
2023/05/25 00:38:42;;;;;;;7.10;6.47;;;;;;;17.58;81.76;94827.22;5073172;28;20446;-82
2023/05/25 00:41:09;;;;;;;8.67;7.87;;;;;;;17.61;81.62;94826.88;5072863;28;20862;-82
2023/05/25 00:43:36;;;;;;;10.40;7.40;;;;;;;17.60;82.14;94827.88;5072599;28;20981;-81
2023/05/25 00:46:03;;;;;;;9.50;7.47;;;;;;;17.58;81.60;94826.41;5072759;28;20502;-82
2023/05/25 00:48:32;;;;;;;9.10;7.00;;;;;;;17.57;81.89;94827.41;5072741;28;20443;-81
2023/05/25 00:50:59;;;;;;;7.50;6.80;;;;;;;17.56;81.52;94825.75;5072597;28;20444;-81
2023/05/25 00:53:26;;;;;;;9.87;7.07;;;;;;;17.55;81.33;94822.28;5072809;28;20441;-82
2023/05/25 00:55:57;;;;;;;8.67;6.20;;;;;;;17.54;80.75;94830.41;5072577;28;20449;-82
2023/05/25 00:58:27;;;;;;;12.63;7.13;;;;;;;17.51;80.12;94825.47;4988904;28;20481;-81
2023/05/25 01:00:55;;;;;;;9.47;6.20;;;;;;;17.49;80.14;94827.47;5072488;28;20454;-81
2023/05/25 01:03:26;;;;;;;7.50;6.40;;;;;;;17.44;80.12;94825.34;5072805;28;20485;-81
2023/05/25 01:05:57;;;;;;;7.27;6.60;;;;;;;17.36;80.32;94824.56;5072795;28;20986;-81
2023/05/25 01:08:26;;;;;;;11.97;6.03;;;;;;;17.32;80.28;94830.16;5072117;28;20532;-82
2023/05/25 01:10:53;;;;;;;11.60;6.47;;;;;;;17.29;80.05;94833.16;5037237;28;20459;-81
2023/05/25 01:13:20;;;;;;;6.53;5.73;;;;;;;17.27;80.64;94826.38;5072515;28;20523;-82
2023/05/25 01:15:48;;;;;;;7.70;6.03;;;;;;;17.24;80.50;94826.75;5072458;28;20994;-81
2023/05/25 01:18:15;;;;;;;6.60;6.00;;;;;;;17.22;80.50;94821.59;5072441;28;20501;-82
2023/05/25 01:20:55;;;;;;;7.50;6.20;;;;;;;17.19;80.50;94824.59;5072315;28;20535;-81
2023/05/25 01:23:30;;;;;;;15.10;6.20;;;;;;;17.16;80.53;94824.13;5072539;28;20445;-82
2023/05/25 01:26:01;;;;;;;8.37;6.83;;;;;;;17.12;80.46;94820.16;5072434;28;20446;-82
2023/05/25 01:28:30;;;;;;;6.67;6.07;;;;;;;17.05;81.01;94817.34;5052940;28;20429;-81
2023/05/25 01:30:58;;;;;;;7.77;7.03;;;;;;;16.99;80.65;94821.53;5072171;28;20866;-81
2023/05/25 01:33:26;;;;;;;8.13;6.00;;;;;;;16.88;81.15;94823.72;5071982;28;20447;-81
2023/05/25 01:35:54;;;;;;;7.33;6.60;;;;;;;16.80;82.06;94815.81;5072032;28;20774;-81
2023/05/25 01:38:21;;;;;;;7.47;6.73;;;;;;;16.79;81.96;94819.44;5071813;28;20449;-81
2023/05/25 01:40:48;;;;;;;6.97;6.00;;;;;;;16.79;81.86;94814.97;5036557;28;20444;-81
2023/05/25 01:43:15;;;;;;;6.43;5.70;;;;;;;16.79;81.71;94816.81;5071988;28;20494;-81
2023/05/25 01:45:42;;;;;;;6.80;6.20;;;;;;;16.76;81.49;94810.00;5072020;28;20842;-81
2023/05/25 01:48:15;;;;;;;7.90;7.10;;;;;;;16.70;81.21;94808.03;5071742;28;20879;-82
2023/05/25 01:50:50;;;;;;;6.57;5.97;;;;;;;16.70;81.39;94803.56;5072034;28;20522;-81
2023/05/25 01:53:22;;;;;;;9.27;7.17;;;;;;;16.55;81.63;94807.03;5071680;28;20536;-81
2023/05/25 01:55:55;;;;;;;8.03;7.23;;;;;;;16.49;81.95;94802.44;5071682;28;20847;-80
2023/05/25 01:58:22;;;;;;;6.63;6.03;;;;;;;16.38;82.43;94803.59;5071946;28;20619;-81
2023/05/25 02:00:51;;;;;;;7.50;6.70;;;;;;;16.38;82.36;94800.94;5071551;28;20504;-82
2023/05/25 02:03:18;;;;;;;6.63;5.97;;;;;;;16.38;82.25;94812.34;5035685;28;20520;-81
2023/05/25 02:05:46;;;;;;;6.97;6.10;;;;;;;16.36;82.02;94805.56;5071410;28;20451;-81
2023/05/25 02:08:12;;;;;;;6.70;6.10;;;;;;;16.36;81.75;94809.03;5071911;28;20538;-81
2023/05/25 02:10:40;;;;;;;6.33;5.80;;;;;;;16.35;82.10;94809.22;5071678;28;20447;-81
2023/05/25 02:13:07;;;;;;;8.00;6.53;;;;;;;16.31;82.10;94814.03;5071567;28;20446;-81
2023/05/25 02:15:34;;;;;;;7.13;6.43;;;;;;;16.28;82.90;94811.72;5071772;28;20498;-81
2023/05/25 02:18:01;;;;;;;7.00;6.37;;;;;;;16.20;82.82;94818.84;5071503;28;20488;-81
2023/05/25 02:20:28;;;;;;;8.20;6.20;;;;;;;16.26;83.30;94819.00;5071397;28;21009;-81
2023/05/25 02:22:55;;;;;;;8.47;5.63;;;;;;;16.31;83.51;94813.19;5071415;28;20447;-81
2023/05/25 02:25:22;;;;;;;6.20;5.60;;;;;;;16.36;83.69;94813.53;5071445;28;20443;-82
2023/05/25 02:27:50;;;;;;;6.80;6.07;;;;;;;16.42;83.20;94820.78;5071648;28;20441;-82
2023/05/25 02:30:17;;;;;;;8.50;6.20;;;;;;;16.42;83.03;94815.50;5071454;28;21000;-82
2023/05/25 02:32:44;;;;;;;7.23;5.90;;;;;;;16.49;83.17;94816.50;5071193;28;20451;-81
2023/05/25 02:35:10;;;;;;;6.40;5.80;;;;;;;16.56;82.35;94825.41;5071349;28;20893;-81
2023/05/25 02:37:37;;;;;;;7.77;6.00;;;;;;;16.63;81.77;94830.88;5071168;28;20544;-81
2023/05/25 02:40:06;;;;;;;7.33;6.43;;;;;;;16.67;81.60;94832.22;5071768;28;20534;-81
2023/05/25 02:42:32;;;;;;;6.13;5.57;;;;;;;16.72;81.46;94841.31;5071222;28;20504;-81
2023/05/25 02:45:00;;;;;;;7.93;6.30;;;;;;;16.75;81.55;94839.31;5071186;28;20520;-82
2023/05/25 02:47:27;;;;;;;6.70;6.07;;;;;;;16.75;81.08;94849.91;5071267;28;20504;-82
2023/05/25 02:49:54;;;;;;;7.37;6.60;;;;;;;16.70;80.78;94853.91;5071309;28;20443;-81
2023/05/25 02:52:21;;;;;;;7.10;6.40;;;;;;;16.69;80.81;94860.19;5071152;28;20576;-81
2023/05/25 02:54:48;;;;;;;6.53;5.33;;;;;;;16.65;81.15;94858.03;5071043;28;20474;-81
2023/05/25 02:57:14;;;;;;;7.27;6.40;;;;;;;16.63;81.14;94852.88;5071461;28;20481;-81
2023/05/25 02:59:41;;;;;;;8.13;6.10;;;;;;;16.65;81.17;94855.38;5070860;28;20447;-81
2023/05/25 03:02:10;;;;;;;6.77;5.90;;;;;;;16.58;80.74;94860.53;5071077;28;20490;-80
2023/05/25 03:04:38;;;;;;;7.70;6.90;;;;;;;16.44;82.47;94869.13;5070999;28;20884;-81
2023/05/25 03:07:05;;;;;;;6.47;5.80;;;;;;;16.44;82.29;94869.13;5070744;28;20985;-81
2023/05/25 03:09:32;;;;;;;7.40;5.73;;;;;;;16.45;82.85;94864.66;5071027;28;20451;-81
2023/05/25 03:11:58;;;;;;;10.77;7.53;;;;;;;16.44;83.15;94871.78;5071025;28;20448;-81
2023/05/25 03:14:25;;;;;;;7.43;6.47;;;;;;;16.42;83.13;94863.16;5072404;28;20851;-81
2023/05/25 03:16:52;;;;;;;8.27;7.37;;;;;;;16.32;83.49;94876.59;5074423;28;20535;-81
2023/05/25 03:19:20;;;;;;;8.37;7.20;;;;;;;16.36;84.02;94869.13;5055642;28;20496;-81
2023/05/25 03:21:47;;;;;;;8.17;6.53;;;;;;;16.41;83.85;94874.75;5074413;28;20962;-81
2023/05/25 03:24:13;;;;;;;8.57;6.40;;;;;;;16.51;83.45;94878.09;5074631;28;20692;-80
2023/05/25 03:26:40;;;;;;;10.50;7.83;;;;;;;16.60;82.02;94884.19;5074437;28;20458;-81
2023/05/25 03:29:07;;;;;;;7.20;6.07;;;;;;;16.67;81.40;94874.59;5074243;28;20449;-81
2023/05/25 03:31:34;;;;;;;11.03;6.47;;;;;;;16.70;80.97;94880.41;5074268;28;20455;-81
2023/05/25 03:34:00;;;;;;;10.03;6.83;;;;;;;16.73;80.39;94874.75;5074391;28;20535;-81
2023/05/25 03:36:29;;;;;;;6.63;6.00;;;;;;;16.85;80.38;94877.91;5074195;28;20480;-81
2023/05/25 03:38:56;;;;;;;6.73;6.17;;;;;;;16.86;79.86;94879.56;5074163;28;20485;-81
2023/05/25 03:41:23;;;;;;;8.27;7.20;;;;;;;16.90;79.76;94880.88;5074110;28;20450;-81
2023/05/25 03:43:50;;;;;;;8.67;6.50;;;;;;;16.92;79.30;94878.03;5073998;28;20452;-81
2023/05/25 03:46:16;;;;;;;6.97;6.27;;;;;;;16.90;79.43;94880.03;5074275;28;21193;-81
2023/05/25 03:48:43;;;;;;;6.57;5.90;;;;;;;16.92;79.31;94878.88;5074031;28;20497;-81
2023/05/25 03:51:10;;;;;;;10.50;6.77;;;;;;;16.98;79.17;94883.50;5073915;28;20448;-80
2023/05/25 03:53:38;;;;;;;6.70;6.10;;;;;;;17.06;79.07;94882.66;5073887;28;20444;-81
2023/05/25 03:56:05;;;;;;;6.83;6.23;;;;;;;17.17;79.74;94889.41;5073319;28;20478;-81
2023/05/25 03:58:32;;;;;;;6.53;5.90;;;;;;;17.49;78.50;94885.81;5073163;28;20481;-81
2023/05/25 04:00:59;;;;;;;9.47;6.00;;;;;;;17.88;77.38;94884.00;5037274;28;20511;-81
2023/05/25 04:03:26;;;;;;;7.57;6.13;;;;;;;18.28;75.47;94887.41;5072916;28;20525;-81
2023/05/25 04:05:53;;;;;;;9.17;6.50;;;;;;;18.65;73.21;94894.59;5073121;28;20475;-81
2023/05/25 04:08:21;;;;;;;7.27;5.90;;;;;;;18.92;72.39;94893.19;5073202;28;20526;-81
2023/05/25 04:10:49;;;;;;;9.87;6.80;;;;;;;19.22;70.49;94902.03;5072761;28;20453;-81
2023/05/25 04:13:16;;;;;;;8.77;7.30;;;;;;;19.31;70.75;94900.94;5073223;28;20438;-81
2023/05/25 04:15:42;;;;;;;11.67;7.10;;;;;;;19.49;69.95;94911.22;5072852;28;20455;-81
2023/05/25 04:18:09;;;;;;;8.17;7.17;;;;;;;19.69;70.07;94906.19;5073227;28;20488;-81
2023/05/25 04:20:36;;;;;;;10.20;6.97;;;;;;;20.02;69.55;94911.94;5072781;28;20777;-81
2023/05/25 04:23:03;;;;;;;9.03;7.27;;;;;;;20.38;68.28;94918.06;5054319;28;20447;-82
2023/05/25 04:25:30;;;;;;;9.87;7.37;;;;;;;20.69;66.91;94912.44;5072552;28;20507;-81
2023/05/25 04:27:59;;;;;;;7.37;6.67;;;;;;;20.96;65.64;94910.00;5073103;28;20973;-81
2023/05/25 04:30:27;;;;;;;7.37;6.67;;;;;;;21.25;64.53;94906.34;5073506;28;20421;-81
2023/05/25 04:32:56;;;;;;;8.90;6.73;;;;;;;21.52;63.51;94913.50;5072930;28;20466;-81
2023/05/25 04:35:23;;;;;;;7.37;6.67;;;;;;;21.48;62.65;94901.56;5053906;28;20948;-81
2023/05/25 04:37:50;;;;;;;7.03;6.33;;;;;;;21.63;63.08;94917.44;5072497;28;20854;-81
2023/05/25 04:40:17;;;;;;;9.83;5.60;;;;;;;21.79;62.57;94918.97;5037318;28;20479;-81
2023/05/25 04:42:43;;;;;;;7.20;6.27;;;;;;;22.06;61.27;94914.59;5070483;28;20463;-81
2023/05/25 04:45:16;;;;;;;6.77;5.53;;;;;;;22.30;59.06;94921.28;5072165;28;20445;-81
2023/05/25 04:47:44;;;;;;;6.00;5.40;;;;;;;22.58;57.90;94923.81;5072523;28;20454;-81
2023/05/25 04:50:14;;;;;;;7.33;5.70;;;;;;;22.80;57.25;94918.06;5073213;28;20476;-81
2023/05/25 04:52:41;;;;;;;9.67;6.70;;;;;;;23.05;56.40;94920.97;5072338;28;20446;-81
2023/05/25 04:55:08;;;;;;;8.93;6.33;;;;;;;23.08;55.91;94927.78;5072652;28;20447;-81
2023/05/25 04:57:35;;;;;;;7.70;7.00;;;;;;;23.17;55.77;94921.19;5053192;28;21058;-82
2023/05/25 05:00:02;;;;;;;8.07;6.50;;;;;;;23.38;55.59;94915.59;5053620;28;20442;-81
2023/05/25 05:02:30;;;;;;;9.17;6.10;;;;;;;23.63;54.75;94909.63;5072606;28;20444;-81
2023/05/25 05:04:57;;;;;;;7.20;6.60;;;;;;;23.84;53.82;94904.00;5072348;28;20478;-82
2023/05/25 05:07:24;;;;;;;10.50;6.00;;;;;;;24.18;54.25;94902.81;5072643;28;20449;-81
2023/05/25 05:09:50;;;;;;;9.10;6.13;;;;;;;24.48;53.68;94910.31;5072600;28;20449;-81
2023/05/25 05:12:17;;;;;;;12.73;6.70;;;;;;;24.70;53.01;94904.41;5072083;28;20448;-81
2023/05/25 05:14:44;;;;;;;13.47;7.03;;;;;;;24.92;52.23;94906.75;5072193;28;20502;-82
2023/05/25 05:17:10;;;;;;;11.20;7.43;;;;;;;25.08;51.61;94903.53;5072221;28;20453;-82
2023/05/25 05:19:39;;;;;;;8.50;7.10;;;;;;;25.14;51.95;94897.28;5072153;28;20510;-81
2023/05/25 05:22:07;;;;;;;13.53;7.30;;;;;;;25.23;52.23;94908.59;5072354;28;20445;-81
2023/05/25 05:24:34;;;;;;;8.77;7.20;;;;;;;25.19;52.64;94913.59;5072116;28;20441;-82
2023/05/25 05:27:02;;;;;;;12.20;6.90;;;;;;;25.25;52.87;94912.69;5072660;28;20494;-82
2023/05/25 05:29:29;;;;;;;10.77;6.90;;;;;;;24.94;52.78;94918.09;5072000;28;20778;-82
2023/05/25 05:31:56;;;;;;;13.07;7.73;;;;;;;24.20;54.79;94919.50;5072044;28;20486;-81
2023/05/25 05:34:22;;;;;;;12.13;6.73;;;;;;;24.45;55.94;94922.31;5071931;28;20520;-82
2023/05/25 05:36:50;;;;;;;12.13;6.90;;;;;;;24.54;54.43;94920.19;5071188;28;20480;-81
2023/05/25 05:39:17;;;;;;;11.00;7.20;;;;;;;24.24;54.88;94925.28;5071786;28;20487;-81
2023/05/25 05:41:44;;;;;;;7.43;6.70;;;;;;;24.22;55.93;94920.13;5071777;28;20455;-81
2023/05/25 05:44:11;;;;;;;11.93;7.10;;;;;;;24.47;55.80;94924.78;5072017;28;20569;-80
2023/05/25 05:46:38;;;;;;;7.83;6.80;;;;;;;24.77;56.30;94922.31;5071730;28;20530;-81
2023/05/25 05:49:05;;;;;;;7.30;6.57;;;;;;;24.70;55.29;94928.56;5072012;28;20447;-81
2023/05/25 05:51:32;;;;;;;9.60;6.07;;;;;;;24.88;55.61;94927.00;5071986;28;20474;-81
2023/05/25 05:54:00;;;;;;;11.93;7.77;;;;;;;24.97;55.11;94928.38;5071843;28;20483;-82
2023/05/25 05:56:27;;;;;;;14.30;8.47;;;;;;;24.36;55.55;94928.97;5071735;28;20444;-81
2023/05/25 05:58:54;;;;;;;11.47;8.20;;;;;;;24.44;55.89;94935.94;5072162;28;20484;-81
2023/05/25 06:01:22;;;;;;;9.07;8.17;;;;;;;24.25;56.99;94932.28;5071470;28;20462;-81
2023/05/25 06:03:51;;;;;;;12.30;7.77;;;;;;;24.39;57.34;94929.38;5071958;28;20475;-82
2023/05/25 06:06:18;;;;;;;8.77;7.50;;;;;;;24.23;57.38;94934.34;5071852;28;20537;-81
2023/05/25 06:08:45;;;;;;;11.63;7.50;;;;;;;24.65;56.47;94931.09;5071405;28;20505;-81
2023/05/25 06:11:13;;;;;;;8.13;7.33;;;;;;;24.99;56.29;94926.34;5071486;28;20493;-81
2023/05/25 06:13:39;;;;;;;10.67;7.80;;;;;;;25.26;54.97;94929.63;5071426;28;20444;-81
2023/05/25 06:16:07;;;;;;;9.40;7.77;;;;;;;25.35;54.05;94922.94;5071209;28;20452;-82
2023/05/25 06:18:33;;;;;;;10.33;9.30;;;;;;;25.46;54.34;94926.78;5071437;28;20480;-82
2023/05/25 06:21:01;;;;;;;12.70;7.70;;;;;;;25.70;53.89;94931.31;5071294;28;20440;-81
2023/05/25 06:23:27;;;;;;;11.07;7.80;;;;;;;25.91;53.39;94933.56;5071386;28;20452;-81
2023/05/25 06:25:54;;;;;;;9.37;6.60;;;;;;;26.11;53.15;94932.53;5071199;28;20437;-81
2023/05/25 06:28:22;;;;;;;10.50;8.10;;;;;;;25.82;52.46;94934.09;5070920;28;20452;-81
2023/05/25 06:30:49;;;;;;;8.60;7.80;;;;;;;25.62;53.95;94936.94;5071622;28;20860;-81
2023/05/25 06:33:16;;;;;;;9.00;7.83;;;;;;;24.90;53.98;94938.34;5071117;28;20475;-81
2023/05/25 06:35:43;;;;;;;11.33;9.40;;;;;;;24.75;55.36;94940.50;5071120;28;21180;-81
2023/05/25 06:38:10;;;;;;;10.90;8.50;;;;;;;24.35;56.33;94933.53;5071325;28;20488;-81
2023/05/25 06:40:37;;;;;;;11.90;9.33;;;;;;;24.74;56.31;94938.88;5071344;28;20526;-81
2023/05/25 06:43:03;;;;;;;8.63;7.83;;;;;;;25.12;56.04;94939.66;5071471;28;20839;-81
2023/05/25 06:45:31;;;;;;;11.67;8.03;;;;;;;25.45;54.18;94946.63;5071351;28;20859;-81
2023/05/25 06:47:58;;;;;;;9.43;8.40;;;;;;;25.32;54.79;94942.19;5072565;28;20486;-81
2023/05/25 06:50:25;;;;;;;12.03;9.83;;;;;;;25.47;54.52;94941.84;5075112;28;20510;-82
2023/05/25 06:52:52;;;;;;;10.30;8.87;;;;;;;25.41;53.32;94937.34;5075444;28;20509;-82
2023/05/25 06:55:18;;;;;;;10.23;9.23;;;;;;;25.30;52.70;94947.78;5074765;28;20444;-81
2023/05/25 06:57:45;;;;;;;13.30;9.73;;;;;;;24.85;55.02;94943.53;5074764;28;20502;-82
2023/05/25 07:00:14;;;;;;;14.40;9.20;;;;;;;25.22;56.14;94940.00;5074832;28;20863;-81
2023/05/25 07:02:42;;;;;;;16.13;9.30;;;;;;;25.48;55.73;94933.56;5075039;28;20450;-81
2023/05/25 07:05:09;;;;;;;14.00;9.47;;;;;;;25.79;53.49;94935.34;5075123;28;20452;-82
2023/05/25 07:07:36;;;;;;;24.40;10.83;;;;;;;25.86;51.24;94936.09;5074647;28;20450;-82
2023/05/25 07:10:04;;;;;;;14.30;9.43;;;;;;;25.93;52.42;94928.78;5074640;28;20456;-82
2023/05/25 07:12:31;;;;;;;14.10;9.00;;;;;;;26.00;52.39;94925.19;5074924;28;20966;-81
2023/05/25 07:14:58;;;;;;;10.97;9.27;;;;;;;26.31;52.83;94927.72;5074775;28;20887;-82
2023/05/25 07:17:25;;;;;;;12.80;10.20;;;;;;;26.31;52.52;94933.13;5074560;28;20482;-82
2023/05/25 07:19:53;;;;;;;13.30;10.20;;;;;;;26.05;52.82;94934.25;5074560;28;20487;-82
2023/05/25 07:22:22;;;;;;;15.70;12.13;;;;;;;25.77;52.76;94921.31;5074037;28;20891;-82
2023/05/25 07:24:49;;;;;;;24.77;13.40;;;;;;;25.55;53.18;94937.00;5055462;28;20437;-82
2023/05/25 07:27:16;;;;;;;24.23;13.07;;;;;;;24.84;54.51;94933.84;5074381;28;20796;-82
2023/05/25 07:29:43;;;;;;;25.40;14.93;;;;;;;24.52;56.30;94936.50;5074421;28;20524;-82
2023/05/25 07:32:09;;;;;;;20.77;15.00;;;;;;;23.96;57.75;94931.78;5074081;28;20506;-82
2023/05/25 07:34:36;;;;;;;21.40;15.67;;;;;;;23.79;58.85;94930.59;5074247;28;20451;-81
2023/05/25 07:37:05;;;;;;;21.60;13.50;;;;;;;23.58;60.56;94936.22;5073915;28;20475;-81
2023/05/25 07:39:31;;;;;;;20.03;14.47;;;;;;;23.32;61.46;94942.41;5074369;28;20886;-82
2023/05/25 07:41:58;;;;;;;22.73;14.73;;;;;;;22.68;62.81;94946.44;5074135;28;20941;-82
2023/05/25 07:44:25;;;;;;;24.33;14.00;;;;;;;22.53;64.71;94943.13;5073938;28;20447;-81
2023/05/25 07:46:52;;;;;;;30.70;14.50;;;;;;;22.44;65.26;94941.66;5055083;28;20446;-81
2023/05/25 07:49:18;;;;;;;22.60;15.23;;;;;;;22.16;66.30;94944.44;5073793;28;20471;-82
2023/05/25 07:51:46;;;;;;;22.93;15.00;;;;;;;21.81;67.77;94947.16;5038510;28;20874;-81
2023/05/25 07:54:14;;;;;;;21.43;12.40;;;;;;;21.54;68.75;94940.81;5074178;28;20442;-82
2023/05/25 07:56:41;;;;;;;25.60;13.40;;;;;;;21.53;69.83;94949.84;5073865;28;20442;-81
2023/05/25 07:59:08;;;;;;;21.30;13.90;;;;;;;21.24;70.15;94956.22;5073268;28;20487;-82
2023/05/25 08:01:35;;;;;;;20.90;12.70;;;;;;;21.04;71.26;94955.19;5073562;28;20457;-81
2023/05/25 08:04:02;;;;;;;18.07;13.17;;;;;;;21.03;72.28;94951.72;5038454;28;20462;-81
2023/05/25 08:06:29;;;;;;;25.00;13.17;;;;;;;20.91;72.02;94961.25;5073887;28;20459;-82
2023/05/25 08:08:56;;;;;;;20.73;11.90;;;;;;;20.60;72.83;94966.09;5073973;28;20450;-81
2023/05/25 08:11:26;;;;;;;20.20;13.23;;;;;;;20.47;73.75;94969.44;5073632;28;20437;-81
2023/05/25 08:13:53;;;;;;;15.50;11.73;;;;;;;20.36;75.01;94967.25;5073662;28;20528;-81
2023/05/25 08:16:20;;;;;;;18.33;12.23;;;;;;;20.29;74.84;94953.84;5054614;28;20852;-81
2023/05/25 08:18:47;;;;;;;17.10;12.23;;;;;;;20.31;75.34;94970.47;5073945;28;20702;-82
2023/05/25 08:21:14;;;;;;;15.23;12.03;;;;;;;19.94;77.52;94979.44;5073207;28;20443;-81
2023/05/25 08:23:42;;;;;;;15.70;11.13;;;;;;;19.95;78.34;94972.25;5073394;28;20544;-81
2023/05/25 08:26:08;;;;;;;14.93;12.50;;;;;;;19.66;79.76;94979.28;5073201;28;20548;-81
2023/05/25 08:28:37;;;;;;;16.93;10.20;;;;;;;19.70;80.01;94980.56;5073211;28;20444;-81
2023/05/25 08:31:04;;;;;;;12.30;10.10;;;;;;;19.71;80.89;94984.88;5073249;28;20444;-81
2023/05/25 08:33:30;;;;;;;32.33;11.97;;;;;;;19.66;81.70;94989.94;5072989;28;20891;-80
2023/05/25 08:35:57;;;;;;;19.67;12.30;;;;;;;19.63;80.77;94992.94;5072990;28;20448;-81
2023/05/25 08:38:25;;;;;;;21.33;12.03;;;;;;;19.51;82.05;94991.72;5072980;28;20872;-81
2023/05/25 08:41:05;;;;;;;16.03;11.53;;;;;;;19.37;82.92;95009.31;5072916;28;20456;-81
2023/05/25 08:43:33;;;;;;;21.63;12.90;;;;;;;19.27;85.87;95010.56;5054063;28;20428;-81
2023/05/25 08:46:04;;;;;;;18.77;13.80;;;;;;;19.18;86.75;95026.63;5073158;28;20504;-81
2023/05/25 08:48:32;;;;;;;14.13;6.57;;;;;;;18.71;83.79;95024.13;5072781;28;20437;-81
2023/05/25 08:51:01;;;;;;;10.57;6.70;;;;;;;18.61;83.31;95025.34;5073202;28;20530;-80
2023/05/25 08:53:34;;;;;;;10.33;7.40;;;;;;;18.56;84.10;95024.06;5072564;28;20494;-81
2023/05/25 08:56:02;;;;;;;11.50;8.10;;;;;;;18.61;86.30;95031.50;5053870;28;20460;-80
2023/05/25 08:58:33;;;;;;;11.47;8.40;;;;;;;18.76;87.26;95036.91;5072400;28;20782;-81
2023/05/25 09:01:07;;;;;;;9.47;7.67;;;;;;;18.86;87.40;95042.84;5072618;28;20502;-81
2023/05/25 09:03:36;;;;;;;10.57;7.53;;;;;;;18.93;88.00;95045.59;5072730;28;20446;-81
2023/05/25 09:06:03;;;;;;;9.30;7.70;;;;;;;18.99;86.56;95051.03;5072454;28;20438;-81
2023/05/25 09:08:30;;;;;;;11.20;8.57;;;;;;;19.08;87.73;95050.00;5072518;28;20954;-81
2023/05/25 09:10:58;;;;;;;8.20;7.37;;;;;;;19.13;88.04;95047.63;5072335;28;20459;-81
2023/05/25 09:13:24;;;;;;;12.70;8.20;;;;;;;19.27;89.09;95048.66;5072550;28;20450;-81
2023/05/25 09:15:51;;;;;;;10.00;7.70;;;;;;;19.40;91.17;95048.06;5072361;28;20450;-81
2023/05/25 09:18:20;;;;;;;11.73;7.27;;;;;;;19.41;91.22;95042.56;5072233;28;21021;-81
2023/05/25 09:20:47;;;;;;;10.30;7.73;;;;;;;19.34;89.97;95044.25;5072372;28;21048;-81
2023/05/25 09:23:14;;;;;;;13.33;6.93;;;;;;;19.33;88.47;95044.44;5071860;28;20498;-81
2023/05/25 09:25:41;;;;;;;7.87;7.07;;;;;;;19.29;89.34;95045.81;5072146;28;20447;-81
2023/05/25 09:28:09;;;;;;;9.27;8.17;;;;;;;19.28;90.00;95039.66;5053496;28;20504;-81
2023/05/25 09:30:36;;;;;;;7.97;7.17;;;;;;;19.28;90.16;95034.34;5072379;28;20473;-81
2023/05/25 09:33:10;;;;;;;11.20;7.17;;;;;;;19.36;92.55;95031.59;5053354;28;20862;-81
2023/05/25 09:35:39;;;;;;;22.63;12.60;;;;;;;19.48;93.75;95038.16;5072086;28;20875;-81
2023/05/25 09:38:06;;;;;;;16.73;9.33;;;;;;;19.53;92.60;95029.66;5072734;28;20501;-81
2023/05/25 09:40:34;;;;;;;10.10;8.20;;;;;;;19.41;91.01;95026.59;5072016;28;20541;-81
2023/05/25 09:43:03;;;;;;;10.77;7.23;;;;;;;19.44;91.63;95028.06;5072104;28;20479;-81
2023/05/25 09:45:30;;;;;;;9.90;7.37;;;;;;;19.39;92.08;95022.44;5071976;28;20437;-81
2023/05/25 09:47:58;;;;;;;16.83;8.13;;;;;;;19.41;93.99;95018.59;5072421;28;20440;-81
2023/05/25 09:50:26;;;;;;;8.90;6.87;;;;;;;19.43;91.77;95021.91;5071764;28;20436;-80
2023/05/25 09:52:58;;;;;;;7.13;6.33;;;;;;;19.48;90.15;95021.34;5072247;28;20458;-82
2023/05/25 09:55:27;;;;;;;9.30;7.20;;;;;;;19.62;90.29;95012.56;5071693;28;20446;-81
2023/05/25 09:57:54;;;;;;;8.10;7.13;;;;;;;19.73;89.94;95011.31;5072123;28;20807;-81
2023/05/25 10:00:22;;;;;;;8.83;7.93;;;;;;;19.85;89.17;95006.34;5071787;28;21024;-81
2023/05/25 10:02:48;;;;;;;11.53;7.83;;;;;;;19.98;88.76;95009.22;5071567;28;20457;-81
2023/05/25 10:05:16;;;;;;;10.93;8.60;;;;;;;20.11;89.10;95002.19;5071820;28;20445;-81
2023/05/25 10:07:44;;;;;;;13.33;9.10;;;;;;;20.27;88.04;95003.84;5071907;28;20449;-81
2023/05/25 10:10:15;;;;;;;10.47;8.17;;;;;;;20.35;87.67;94998.41;5071910;28;20457;-81
2023/05/25 10:12:44;;;;;;;14.10;7.53;;;;;;;20.48;84.78;95004.91;5072118;28;20448;-81
2023/05/25 10:15:12;;;;;;;13.43;7.47;;;;;;;20.59;83.01;94994.59;5071707;28;20486;-81
2023/05/25 10:17:45;;;;;;;13.20;9.13;;;;;;;20.78;83.64;94995.81;5071990;28;20438;-81
2023/05/25 10:20:14;;;;;;;7.60;6.13;;;;;;;20.90;81.70;94983.63;5071684;28;20576;-81
2023/05/25 10:22:46;;;;;;;7.93;7.07;;;;;;;21.13;80.18;94986.09;5071971;28;20836;-81
2023/05/25 10:25:22;;;;;;;7.77;7.03;;;;;;;21.30;80.29;94981.31;5075637;28;20446;-81
2023/05/25 10:27:55;;;;;;;8.10;6.00;;;;;;;21.39;77.37;94982.00;5056901;28;20446;-81
2023/05/25 10:30:25;;;;;;;8.17;6.07;;;;;;;21.58;78.56;94973.28;5075691;28;20450;-81
2023/05/25 10:32:53;;;;;;;6.90;6.30;;;;;;;21.82;79.83;94969.34;5075886;28;20451;-81
2023/05/25 10:35:21;;;;;;;6.27;5.67;;;;;;;21.99;78.84;94964.50;5056664;28;20866;-82
2023/05/25 10:37:51;;;;;;;8.40;6.93;;;;;;;22.08;73.94;94966.00;5075191;28;20483;-82
2023/05/25 10:40:20;;;;;;;8.70;7.50;;;;;;;22.04;74.07;94962.09;5040437;28;20483;-80
2023/05/25 10:42:47;;;;;;;10.43;7.53;;;;;;;21.96;76.38;94952.34;5075429;28;20452;-81
2023/05/25 10:45:15;;;;;;;10.23;8.40;;;;;;;21.96;75.43;94950.50;5075265;28;20934;-81
2023/05/25 10:47:42;;;;;;;14.40;7.43;;;;;;;22.00;78.20;94944.78;5074866;28;20467;-81
2023/05/25 10:50:20;;;;;;;8.37;7.17;;;;;;;21.80;74.83;94942.00;5075423;28;20489;-80
2023/05/25 10:52:57;;;;;;;8.63;7.70;;;;;;;21.73;74.92;94944.63;5075067;28;20489;-81
2023/05/25 10:55:30;;;;;;;9.70;8.13;;;;;;;21.73;75.72;94935.81;5075172;28;20446;-81
2023/05/25 10:58:08;;;;;;;10.43;7.63;;;;;;;21.73;74.77;94935.81;5074959;28;20474;-81
2023/05/25 11:00:35;;;;;;;10.93;8.60;;;;;;;21.75;74.67;94934.59;5074833;28;20486;-82
2023/05/25 11:03:02;;;;;;;9.93;7.57;;;;;;;21.75;74.71;94931.91;5074855;28;20953;-82
2023/05/25 11:05:33;;;;;;;13.90;9.40;;;;;;;21.72;74.29;94928.81;5074724;28;20450;-81
2023/05/25 11:08:01;;;;;;;10.07;8.40;;;;;;;21.72;73.81;94929.63;5075043;28;20439;-81
2023/05/25 11:11:00;;;;;;;13.40;8.43;;;;;;;21.55;74.35;94929.13;5075012;28;20530;-82
2023/05/25 11:13:36;;;;;;;8.37;6.93;;;;;;;21.53;73.29;94928.50;5012710;28;20960;-81
2023/05/25 11:16:16;;;;;;;7.27;6.57;;;;;;;21.47;73.83;94928.47;5012652;28;20452;-81
2023/05/25 11:18:45;;;;;;;9.90;6.50;;;;;;;21.44;73.46;94931.53;5012624;28;20538;-82
2023/05/25 11:21:14;;;;;;;7.10;6.33;;;;;;;21.45;72.64;94926.00;5012245;28;20853;-82
2023/05/25 11:23:53;;;;;;;10.80;7.27;;;;;;;21.51;73.56;94930.53;5012467;28;20453;-81
2023/05/25 11:26:26;;;;;;;6.43;5.83;;;;;;;21.47;70.91;94931.97;5012156;28;20491;-81
2023/05/25 11:28:53;;;;;;;8.17;6.50;;;;;;;21.38;72.80;94927.78;5012264;28;20449;-81
2023/05/25 11:31:23;;;;;;;11.80;7.47;;;;;;;21.30;71.10;94922.59;5012419;28;20869;-81
2023/05/25 11:33:56;;;;;;;7.60;6.90;;;;;;;21.33;72.20;94923.03;5011844;28;20525;-82